Time;durP1;ratioP1;P1;durP2;ratioP2;P2;SDS_P1;SDS_P2;PMS_P1;PMS_P2;Temp;Humidity;BMP_temperature;BMP_pressure;BME280_temperature;BME280_humidity;BME280_pressure;Samples;Min_cycle;Max_cycle;Signal;HPM_P1;HPM_P2
2021/03/31 00:01:57;;;;;;;6.78;2.95;;;12.40;99.90;;;;;;5055367;28;20112;-78
2021/03/31 00:04:23;;;;;;;6.72;3.20;;;12.40;99.90;;;;;;5055472;28;20071;-79
2021/03/31 00:06:49;;;;;;;15.65;4.07;;;12.40;99.90;;;;;;5055615;28;20501;-78
2021/03/31 00:09:15;;;;;;;6.00;3.00;;;12.30;99.90;;;;;;5035225;28;20025;-79
2021/03/31 00:11:42;;;;;;;12.90;3.88;;;12.30;99.90;;;;;;5035317;28;20022;-79
2021/03/31 00:14:10;;;;;;;5.97;2.90;;;12.30;99.90;;;;;;5051092;28;20110;-79
2021/03/31 01:15:48;;;;;;;14.65;4.40;;;12.10;99.90;;;;;;4454286;28;20102;-78
2021/03/31 01:18:36;;;;;;;5.80;3.25;;;12.00;99.90;;;;;;5053929;28;20029;-76
2021/03/31 01:21:47;;;;;;;6.85;3.53;;;12.00;99.90;;;;;;5053894;28;20021;-76
2021/03/31 01:24:55;;;;;;;7.00;3.80;;;12.00;99.90;;;;;;5054065;28;20021;-77
2021/03/31 01:27:36;;;;;;;5.85;3.60;;;12.00;99.90;;;;;;5053563;28;20558;-77
2021/03/31 01:30:10;;;;;;;9.07;4.00;;;11.90;99.90;;;;;;5053831;28;20386;-78
2021/03/31 01:32:45;;;;;;;14.15;3.97;;;11.90;99.90;;;;;;5053791;28;20037;-76
2021/03/31 01:35:14;;;;;;;8.68;4.22;;;11.90;99.90;;;;;;5053570;28;20029;-78
2021/03/31 01:37:44;;;;;;;7.22;4.40;;;11.90;99.90;;;;;;5053433;28;20071;-77
2021/03/31 01:40:14;;;;;;;7.95;4.28;;;11.80;99.90;;;;;;5053540;28;20032;-77
2021/03/31 01:43:09;;;;;;;7.32;4.13;;;11.80;99.90;;;;;;5053470;28;20128;-76
2021/03/31 01:45:37;;;;;;;11.18;4.00;;;11.80;99.90;;;;;;5050412;28;20040;-76
2021/03/31 01:48:12;;;;;;;9.50;4.35;;;11.80;99.90;;;;;;5034690;28;20483;-76
2021/03/31 01:50:39;;;;;;;7.15;3.70;;;11.80;99.90;;;;;;5055651;28;20035;-76
2021/03/31 01:53:06;;;;;;;10.63;4.10;;;11.80;99.90;;;;;;5054993;28;20032;-76
2021/03/31 01:55:34;;;;;;;12.60;4.10;;;11.80;99.90;;;;;;5053201;28;20025;-77
2021/03/31 01:58:02;;;;;;;7.68;3.60;;;11.80;99.90;;;;;;5053152;28;20029;-77
2021/03/31 02:00:31;;;;;;;7.03;3.67;;;11.80;99.90;;;;;;5053286;28;20028;-75
2021/03/31 02:02:59;;;;;;;11.90;3.97;;;11.80;99.90;;;;;;5035572;28;20037;-76
2021/03/31 02:05:25;;;;;;;9.32;3.85;;;11.80;99.90;;;;;;5053049;28;20025;-76
2021/03/31 02:07:53;;;;;;;15.68;4.60;;;11.80;99.90;;;;;;5052811;28;20035;-78
2021/03/31 02:10:23;;;;;;;11.57;3.35;;;11.80;99.90;;;;;;5053063;28;20028;-76
2021/03/31 02:12:51;;;;;;;7.75;4.28;;;11.80;99.90;;;;;;5052836;28;20048;-77
2021/03/31 02:15:23;;;;;;;14.43;5.00;;;11.80;99.90;;;;;;5052752;28;20037;-76
2021/03/31 02:17:50;;;;;;;8.90;3.88;;;11.80;99.90;;;;;;5034976;28;20433;-76
2021/03/31 02:20:19;;;;;;;8.05;4.65;;;11.90;99.90;;;;;;5052791;28;20047;-76
2021/03/31 02:22:46;;;;;;;10.60;4.53;;;11.90;99.90;;;;;;5052685;28;20062;-76
2021/03/31 02:25:13;;;;;;;13.88;4.13;;;11.90;99.90;;;;;;5034787;28;20029;-76
2021/03/31 02:27:39;;;;;;;8.60;3.85;;;11.90;99.90;;;;;;5052841;28;20021;-76
2021/03/31 02:30:10;;;;;;;8.13;4.15;;;11.90;99.90;;;;;;5052312;28;20506;-76
2021/03/31 02:32:37;;;;;;;8.18;3.75;;;11.90;99.90;;;;;;5052588;28;20025;-77
2021/03/31 02:35:05;;;;;;;11.18;4.45;;;11.80;99.90;;;;;;5052581;28;20066;-76
2021/03/31 02:37:31;;;;;;;8.82;4.97;;;11.80;99.90;;;;;;5052439;28;20029;-77
2021/03/31 02:39:58;;;;;;;11.63;5.55;;;11.90;99.90;;;;;;5052268;28;20100;-77
2021/03/31 02:42:26;;;;;;;8.73;4.43;;;11.90;99.90;;;;;;5052337;28;20064;-76
2021/03/31 02:44:55;;;;;;;9.77;5.18;;;11.90;99.90;;;;;;5052364;28;20111;-76
2021/03/31 02:47:29;;;;;;;9.70;4.93;;;11.90;99.90;;;;;;5052508;28;20471;-77
2021/03/31 02:50:00;;;;;;;14.55;4.18;;;11.90;99.90;;;;;;5052144;28;20390;-76
2021/03/31 02:52:27;;;;;;;11.10;4.97;;;11.90;99.90;;;;;;5052298;28;20025;-76
2021/03/31 02:54:54;;;;;;;11.77;4.43;;;11.80;99.90;;;;;;5052589;28;20047;-77
2021/03/31 02:57:21;;;;;;;12.45;5.53;;;11.80;99.90;;;;;;5052503;28;20112;-76
2021/03/31 02:59:49;;;;;;;7.55;4.35;;;11.80;99.90;;;;;;5051844;28;20040;-77
2021/03/31 03:02:20;;;;;;;9.35;3.67;;;11.80;99.90;;;;;;5052591;28;20068;-76
2021/03/31 03:04:48;;;;;;;11.80;4.85;;;11.80;99.90;;;;;;5056972;28;20021;-76
2021/03/31 03:07:14;;;;;;;13.02;4.78;;;11.80;99.90;;;;;;5052207;28;20052;-76
2021/03/31 03:09:41;;;;;;;9.23;4.15;;;11.80;99.90;;;;;;5051941;28;20025;-76
2021/03/31 03:12:11;;;;;;;8.30;4.55;;;11.80;99.90;;;;;;5052080;28;20029;-76
2021/03/31 03:14:38;;;;;;;6.72;4.53;;;11.90;99.90;;;;;;5051990;28;20399;-76
2021/03/31 03:17:04;;;;;;;18.70;5.32;;;12.10;99.90;;;;;;5052277;28;20055;-76
2021/03/31 03:19:30;;;;;;;8.10;4.28;;;12.20;99.90;;;;;;5034304;28;20159;-75
2021/03/31 03:21:57;;;;;;;7.70;4.75;;;12.30;99.90;;;;;;5051796;28;20128;-76
2021/03/31 03:24:24;;;;;;;7.03;4.38;;;12.30;99.90;;;;;;5052037;28;20036;-76
2021/03/31 03:26:51;;;;;;;10.48;5.32;;;12.20;99.90;;;;;;5052015;28;20108;-78
2021/03/31 03:29:18;;;;;;;6.07;4.78;;;12.10;99.90;;;;;;5052032;28;20480;-77
2021/03/31 03:31:44;;;;;;;9.93;4.72;;;12.00;99.90;;;;;;5051806;28;20140;-77
2021/03/31 03:34:10;;;;;;;8.63;4.35;;;11.90;99.90;;;;;;5052054;28;20041;-77
2021/03/31 03:36:41;;;;;;;10.15;4.70;;;11.90;99.90;;;;;;5051979;28;20039;-77
2021/03/31 03:39:07;;;;;;;9.63;4.38;;;11.90;99.90;;;;;;5052000;28;20028;-77
2021/03/31 03:41:33;;;;;;;9.80;4.85;;;11.80;99.90;;;;;;5051604;28;20021;-77
2021/03/31 03:43:59;;;;;;;10.55;5.15;;;11.80;99.90;;;;;;5051908;28;20025;-77
2021/03/31 03:46:30;;;;;;;12.52;5.60;;;11.80;99.90;;;;;;5051889;28;20021;-78
2021/03/31 03:49:01;;;;;;;10.38;5.25;;;11.80;99.90;;;;;;5051798;28;20025;-76
2021/03/31 03:51:27;;;;;;;14.88;5.00;;;11.70;99.90;;;;;;5051475;28;20017;-77
2021/03/31 03:53:54;;;;;;;11.70;5.30;;;11.70;99.90;;;;;;5051734;28;20028;-78
2021/03/31 03:56:21;;;;;;;13.23;4.93;;;11.70;99.90;;;;;;5051763;28;20086;-76
2021/03/31 03:58:48;;;;;;;12.82;4.63;;;11.70;99.90;;;;;;5051905;28;20074;-78
2021/03/31 04:01:14;;;;;;;13.93;5.75;;;11.70;99.90;;;;;;5051339;28;20052;-76
2021/03/31 04:03:40;;;;;;;16.35;5.88;;;11.60;99.90;;;;;;5051729;28;20159;-76
2021/03/31 04:06:08;;;;;;;9.02;5.38;;;11.60;99.90;;;;;;5033973;28;20033;-76
2021/03/31 04:08:35;;;;;;;10.50;4.97;;;11.60;99.90;;;;;;5051682;28;20476;-76
2021/03/31 04:11:02;;;;;;;10.80;5.93;;;11.60;99.90;;;;;;5051719;28;20104;-77
2021/03/31 04:13:30;;;;;;;8.10;5.10;;;11.50;99.90;;;;;;5055353;28;20070;-76
2021/03/31 04:16:14;;;;;;;8.48;5.30;;;11.50;99.90;;;;;;5057725;28;20071;-76
2021/03/31 04:18:41;;;;;;;10.20;4.53;;;11.50;99.90;;;;;;5053229;28;20037;-78
2021/03/31 04:21:09;;;;;;;9.68;5.97;;;11.50;99.90;;;;;;5045307;28;20025;-79
2021/03/31 04:23:35;;;;;;;12.07;5.32;;;11.50;99.90;;;;;;5046980;28;20159;-79
2021/03/31 04:26:01;;;;;;;10.52;5.35;;;11.50;99.90;;;;;;5034923;28;20036;-73
2021/03/31 04:28:28;;;;;;;7.63;5.60;;;11.50;99.90;;;;;;5034669;28;20491;-76
2021/03/31 04:30:56;;;;;;;11.40;4.90;;;11.50;99.90;;;;;;5054072;28;20495;-74
2021/03/31 04:33:26;;;;;;;10.43;4.75;;;11.50;99.90;;;;;;5054459;28;20025;-71
2021/03/31 04:35:55;;;;;;;11.52;6.30;;;11.50;99.90;;;;;;5054352;28;20086;-74
2021/03/31 04:38:21;;;;;;;11.98;6.38;;;11.60;99.90;;;;;;5052645;28;20017;-76
2021/03/31 04:41:01;;;;;;;12.30;5.43;;;11.60;99.90;;;;;;5054231;28;20556;-75
2021/03/31 04:43:29;;;;;;;8.25;5.05;;;11.60;99.90;;;;;;5053688;28;20052;-70
2021/03/31 04:45:59;;;;;;;11.23;5.95;;;11.60;99.90;;;;;;5044070;28;20029;-72
2021/03/31 04:48:26;;;;;;;15.32;6.97;;;11.60;99.90;;;;;;5016411;28;20033;-71
2021/03/31 04:50:53;;;;;;;13.43;5.85;;;11.60;99.90;;;;;;5033811;28;20037;-73
2021/03/31 04:53:19;;;;;;;10.98;5.28;;;11.60;99.90;;;;;;5016654;28;20192;-73
2021/03/31 04:55:45;;;;;;;13.35;5.47;;;11.50;99.90;;;;;;5034177;28;20029;-70
2021/03/31 04:58:12;;;;;;;13.65;5.80;;;11.50;99.90;;;;;;5053494;28;20387;-71
2021/03/31 05:00:38;;;;;;;11.90;5.72;;;11.50;99.90;;;;;;5053924;28;20031;-70
2021/03/31 05:03:05;;;;;;;18.40;7.25;;;11.50;99.90;;;;;;5043007;28;20041;-72
2021/03/31 05:05:31;;;;;;;10.80;6.88;;;11.50;99.90;;;;;;5034052;28;20079;-71
2021/03/31 05:07:57;;;;;;;11.40;6.22;;;11.50;99.90;;;;;;5033877;28;20494;-69
2021/03/31 05:10:24;;;;;;;13.30;5.90;;;11.60;99.90;;;;;;5033814;28;20017;-71
2021/03/31 05:12:50;;;;;;;12.00;5.85;;;11.60;99.90;;;;;;5045900;28;20037;-70
2021/03/31 05:15:17;;;;;;;10.23;5.55;;;11.60;99.90;;;;;;5053447;28;20144;-70
2021/03/31 05:17:43;;;;;;;11.88;5.93;;;11.70;99.90;;;;;;5053916;28;20082;-70
2021/03/31 05:20:10;;;;;;;10.07;5.45;;;11.70;99.90;;;;;;5041809;28;20404;-69
2021/03/31 05:22:36;;;;;;;16.42;6.55;;;11.80;99.90;;;;;;5033334;28;20060;-70
2021/03/31 05:25:03;;;;;;;11.55;5.57;;;11.80;99.90;;;;;;5033536;28;20025;-70
2021/03/31 05:27:29;;;;;;;10.80;5.30;;;11.90;99.90;;;;;;5033499;28;20116;-70
2021/03/31 05:29:55;;;;;;;12.68;5.32;;;11.90;99.90;;;;;;5034258;28;20104;-69
2021/03/31 05:32:21;;;;;;;9.93;6.57;;;11.90;99.90;;;;;;5033252;28;20025;-69
2021/03/31 05:34:47;;;;;;;10.80;5.32;;;11.90;99.90;;;;;;5053316;28;20025;-69
2021/03/31 05:37:13;;;;;;;15.70;5.95;;;12.00;99.90;;;;;;5052397;28;20025;-70
2021/03/31 05:39:39;;;;;;;9.98;5.60;;;12.10;99.90;;;;;;5052962;28;20037;-71
2021/03/31 05:42:09;;;;;;;8.67;5.50;;;12.10;99.90;;;;;;5053121;28;20068;-70
2021/03/31 05:44:35;;;;;;;11.48;5.50;;;12.20;99.90;;;;;;5035021;28;20267;-69
2021/03/31 05:47:02;;;;;;;16.27;5.05;;;12.30;99.90;;;;;;5053001;28;20414;-72
2021/03/31 05:49:30;;;;;;;16.83;6.63;;;12.40;99.90;;;;;;5052485;28;20079;-70
2021/03/31 05:51:56;;;;;;;12.38;6.25;;;12.50;99.90;;;;;;5052981;28;20033;-70
2021/03/31 05:54:24;;;;;;;8.55;4.78;;;12.60;99.90;;;;;;5039295;28;20052;-72
2021/03/31 05:56:53;;;;;;;7.50;5.25;;;12.70;99.90;;;;;;5033120;28;20028;-69
2021/03/31 05:59:20;;;;;;;8.52;5.30;;;12.70;99.90;;;;;;5032766;28;20061;-70
2021/03/31 06:01:48;;;;;;;9.70;5.05;;;12.80;99.90;;;;;;5032797;28;20068;-70
2021/03/31 06:04:18;;;;;;;11.68;5.68;;;12.90;99.90;;;;;;5032647;28;20206;-73
2021/03/31 06:06:44;;;;;;;10.75;5.43;;;13.00;99.90;;;;;;5037158;28;20026;-77
2021/03/31 06:09:10;;;;;;;10.63;5.97;;;13.00;99.90;;;;;;5048681;28;20120;-77
2021/03/31 06:11:59;;;;;;;10.88;5.95;;;13.10;99.90;;;;;;5039958;28;20370;-73
2021/03/31 06:14:36;;;;;;;12.60;6.43;;;13.20;99.90;;;;;;5052254;28;20103;-72
2021/03/31 06:17:11;;;;;;;14.85;6.40;;;13.20;99.90;;;;;;5052556;28;20028;-75
2021/03/31 06:19:39;;;;;;;15.50;5.75;;;13.30;99.90;;;;;;5044237;28;20028;-73
2021/03/31 06:24:59;;;;;;;9.15;5.38;;;13.50;99.90;;;;;;5050920;28;20021;-73
2021/03/31 06:27:29;;;;;;;16.85;5.95;;;13.60;99.90;;;;;;5049138;28;20032;-76
2021/03/31 06:30:07;;;;;;;11.45;5.50;;;13.60;99.90;;;;;;5034147;28;20025;-71
2021/03/31 06:32:40;;;;;;;11.15;6.53;;;13.70;99.90;;;;;;5052373;28;20032;-70
2021/03/31 06:35:25;;;;;;;10.57;5.72;;;13.70;99.90;;;;;;5051449;28;20035;-72
2021/03/31 06:38:02;;;;;;;11.13;5.00;;;13.80;99.90;;;;;;5052381;28;20112;-77
2021/03/31 06:40:44;;;;;;;14.75;5.55;;;13.90;99.90;;;;;;5052835;28;20029;-75
2021/03/31 06:43:20;;;;;;;9.43;4.90;;;13.90;99.90;;;;;;5053274;28;20049;-76
2021/03/31 06:46:11;;;;;;;9.57;5.10;;;14.00;99.90;;;;;;5052248;28;20025;-70
2021/03/31 06:48:35;;;;;;;11.60;4.78;;;14.10;99.90;;;;;;5051517;28;20044;-71
2021/03/31 06:51:01;;;;;;;11.55;4.47;;;14.20;99.90;;;;;;5052004;28;20578;-69
2021/03/31 06:53:32;;;;;;;7.97;4.03;;;14.20;99.90;;;;;;5051664;28;20119;-70
2021/03/31 06:56:03;;;;;;;12.20;4.60;;;14.30;99.90;;;;;;5052016;28;20270;-70
2021/03/31 06:58:29;;;;;;;11.55;4.25;;;14.40;99.90;;;;;;5051797;28;20037;-75
2021/03/31 07:00:55;;;;;;;4.97;3.35;;;14.50;99.90;;;;;;5051849;28;20052;-75
2021/03/31 07:03:23;;;;;;;7.28;3.45;;;14.50;99.90;;;;;;5048503;28;20122;-70
2021/03/31 07:05:49;;;;;;;7.63;3.83;;;14.60;99.90;;;;;;5048088;28;20100;-74
2021/03/31 07:08:17;;;;;;;6.70;3.92;;;14.70;99.90;;;;;;5048342;28;20112;-77
2021/03/31 07:10:52;;;;;;;7.72;3.90;;;14.80;99.90;;;;;;5048355;28;20021;-79
2021/03/31 07:13:31;;;;;;;10.02;4.22;;;14.80;99.90;;;;;;5044949;28;20052;-78
2021/03/31 07:15:59;;;;;;;6.15;3.25;;;14.90;99.90;;;;;;5044791;28;20045;-75
2021/03/31 07:18:28;;;;;;;7.18;2.97;;;14.90;99.90;;;;;;5049146;28;20037;-78
2021/03/31 07:20:54;;;;;;;6.28;2.75;;;15.00;99.90;;;;;;5048642;28;20028;-77
2021/03/31 07:23:21;;;;;;;6.45;2.58;;;15.20;99.90;;;;;;5049914;28;20087;-69
2021/03/31 07:25:54;;;;;;;5.93;2.70;;;15.10;99.90;;;;;;5050989;28;20036;-77
2021/03/31 07:28:26;;;;;;;;;;;15.20;99.90;;;;;;5050623;28;20033;-73
2021/03/31 07:30:53;;;;;;;4.78;2.42;;;15.20;99.90;;;;;;5045323;28;19915;-69
2021/03/31 07:33:22;;;;;;;2.97;2.45;;;15.30;99.70;;;;;;5033195;28;20025;-76
2021/03/31 07:35:50;;;;;;;7.53;2.85;;;15.30;98.90;;;;;;5051227;28;20025;-76
2021/03/31 07:38:19;;;;;;;4.80;2.67;;;15.50;98.40;;;;;;5034044;28;20057;-69
2021/03/31 07:40:47;;;;;;;4.53;2.42;;;15.60;98.50;;;;;;5031195;28;20083;-69
2021/03/31 07:43:25;;;;;;;5.03;2.67;;;15.70;97.50;;;;;;5013265;28;20476;-71
2021/03/31 07:45:55;;;;;;;4.32;2.40;;;15.90;96.30;;;;;;5031236;28;20045;-71
2021/03/31 07:48:22;;;;;;;5.43;2.67;;;16.00;95.80;;;;;;5042418;28;20029;-70
2021/03/31 07:50:48;;;;;;;5.57;3.00;;;16.10;95.10;;;;;;5035073;28;20518;-69
2021/03/31 07:53:14;;;;;;;3.25;2.10;;;16.10;95.30;;;;;;5034926;28;20026;-70
2021/03/31 07:55:45;;;;;;;5.15;2.88;;;16.20;94.70;;;;;;5054964;28;20486;-70
2021/03/31 07:58:17;;;;;;;5.28;2.30;;;16.10;94.80;;;;;;5054659;28;20033;-70
2021/03/31 08:03:30;;;;;;;2.85;2.13;;;16.30;94.50;;;;;;5054618;28;20382;-71
2021/03/31 08:06:08;;;;;;;7.25;2.67;;;16.50;93.90;;;;;;5054577;28;20036;-71
2021/03/31 08:08:54;;;;;;;3.88;2.50;;;16.60;93.50;;;;;;5054626;28;20483;-70
2021/03/31 08:11:39;;;;;;;3.72;2.97;;;16.70;93.30;;;;;;5044869;28;20025;-71
2021/03/31 08:14:09;;;;;;;5.95;2.70;;;16.80;93.70;;;;;;5034825;28;20029;-71
2021/03/31 08:16:44;;;;;;;4.68;2.60;;;16.80;93.90;;;;;;5042372;28;20399;-71
2021/03/31 08:19:21;;;;;;;4.22;2.45;;;16.90;94.30;;;;;;5054145;28;20029;-71
2021/03/31 08:21:49;;;;;;;5.60;2.85;;;17.00;92.60;;;;;;5054311;28;20033;-70
2021/03/31 08:24:17;;;;;;;5.00;2.55;;;17.10;93.10;;;;;;5036123;28;20033;-71
2021/03/31 08:26:45;;;;;;;7.70;2.58;;;17.10;93.10;;;;;;5054242;28;20048;-70
2021/03/31 08:29:20;;;;;;;3.47;2.80;;;17.00;91.50;;;;;;5037565;28;20185;-70
2021/03/31 08:31:47;;;;;;;5.55;3.22;;;16.90;92.60;;;;;;5034356;28;20037;-70
2021/03/31 08:34:15;;;;;;;5.88;2.60;;;17.00;93.50;;;;;;5034163;28;20518;-70
2021/03/31 08:36:42;;;;;;;5.03;2.58;;;16.90;91.80;;;;;;5047185;28;20035;-69
2021/03/31 08:39:13;;;;;;;6.75;2.78;;;17.10;91.90;;;;;;5035998;28;20035;-69
2021/03/31 08:41:41;;;;;;;9.45;2.65;;;17.20;91.80;;;;;;5053998;28;20036;-69
2021/03/31 08:44:23;;;;;;;10.88;3.50;;;17.10;91.00;;;;;;5035984;28;20483;-70
2021/03/31 08:46:50;;;;;;;3.80;2.38;;;17.30;91.50;;;;;;5053882;28;20059;-70
2021/03/31 08:49:24;;;;;;;9.07;3.17;;;17.30;90.80;;;;;;5035845;28;20056;-70
2021/03/31 08:51:53;;;;;;;6.07;3.78;;;17.50;91.20;;;;;;5053563;28;20505;-70
2021/03/31 08:54:39;;;;;;;9.27;3.33;;;17.70;91.10;;;;;;5053454;28;20052;-70
2021/03/31 08:57:10;;;;;;;3.92;2.60;;;17.80;90.00;;;;;;5053349;28;20036;-70
2021/03/31 08:59:40;;;;;;;3.35;2.33;;;18.00;89.80;;;;;;5053715;28;20110;-71
2021/03/31 09:02:07;;;;;;;5.85;3.25;;;18.20;88.40;;;;;;5045763;28;20539;-79
2021/03/31 09:04:34;;;;;;;4.82;2.67;;;18.30;86.30;;;;;;5049643;28;20096;-79
2021/03/31 09:07:03;;;;;;;4.90;2.25;;;18.30;84.40;;;;;;5052646;28;20037;-70
2021/03/31 09:09:34;;;;;;;4.50;3.10;;;18.40;81.90;;;;;;5051955;28;20483;-70
2021/03/31 09:12:01;;;;;;;5.90;2.63;;;18.40;80.20;;;;;;5050437;28;20048;-71
2021/03/31 09:14:28;;;;;;;3.83;2.42;;;18.50;81.10;;;;;;5046124;28;20118;-76
2021/03/31 09:17:00;;;;;;;4.90;2.25;;;18.60;82.10;;;;;;5051252;28;20029;-75
2021/03/31 09:19:35;;;;;;;8.13;3.30;;;18.70;79.90;;;;;;5052329;28;20029;-76
2021/03/31 09:22:25;;;;;;;2.72;2.03;;;18.80;80.90;;;;;;5053092;28;20037;-73
2021/03/31 09:24:53;;;;;;;4.18;2.88;;;18.90;80.00;;;;;;5053080;28;20033;-76
2021/03/31 09:27:22;;;;;;;4.68;2.60;;;19.00;79.00;;;;;;5052877;28;20025;-78
2021/03/31 09:29:51;;;;;;;4.57;3.08;;;18.70;78.60;;;;;;5053052;28;20028;-75
2021/03/31 09:32:24;;;;;;;6.28;3.88;;;18.50;78.20;;;;;;5033550;28;20038;-73
2021/03/31 09:34:50;;;;;;;6.70;3.65;;;18.70;78.90;;;;;;5045073;28;20082;-76
2021/03/31 09:37:20;;;;;;;7.00;3.10;;;18.90;79.50;;;;;;5035928;28;20057;-72
2021/03/31 09:39:56;;;;;;;4.68;2.78;;;19.00;79.00;;;;;;5033030;28;20108;-73
2021/03/31 09:42:29;;;;;;;5.75;2.72;;;19.20;79.20;;;;;;5032792;28;20037;-72
2021/03/31 09:44:56;;;;;;;5.38;2.70;;;19.30;79.00;;;;;;5015293;28;20051;-72
2021/03/31 09:47:26;;;;;;;7.65;3.13;;;19.40;78.80;;;;;;5032682;28;20036;-72
2021/03/31 09:49:54;;;;;;;7.18;3.03;;;19.60;78.40;;;;;;5032777;28;20037;-73
2021/03/31 09:52:31;;;;;;;5.07;2.63;;;19.70;77.80;;;;;;5033287;28;20444;-72
2021/03/31 09:55:14;;;;;;;7.20;2.55;;;19.80;76.50;;;;;;5032791;28;20037;-72
2021/03/31 09:57:44;;;;;;;5.65;2.60;;;19.70;77.30;;;;;;5032607;28;20029;-72
2021/03/31 10:00:14;;;;;;;7.13;2.95;;;19.50;77.70;;;;;;5015606;28;20116;-79
2021/03/31 10:02:42;;;;;;;4.93;2.75;;;19.70;77.30;;;;;;5048844;28;20041;-78
2021/03/31 10:05:14;;;;;;;3.88;2.83;;;19.80;75.50;;;;;;5052125;28;20369;-76
2021/03/31 10:07:40;;;;;;;9.43;3.35;;;19.90;75.00;;;;;;5052179;28;20037;-78
2021/03/31 10:10:08;;;;;;;6.28;2.95;;;20.10;74.40;;;;;;5043931;28;20029;-78
2021/03/31 10:12:36;;;;;;;5.15;2.38;;;19.90;74.20;;;;;;5032091;28;20039;-79
2021/03/31 10:15:10;;;;;;;5.82;2.88;;;19.90;72.10;;;;;;5036940;28;20049;-76
2021/03/31 10:17:37;;;;;;;4.20;2.92;;;20.00;73.20;;;;;;5052203;28;20039;-80
2021/03/31 10:20:13;;;;;;;6.28;2.58;;;20.10;70.10;;;;;;5056197;28;20021;-74
2021/03/31 10:22:40;;;;;;;2.72;2.30;;;19.90;70.50;;;;;;5051943;28;20388;-76
2021/03/31 10:25:21;;;;;;;5.85;3.45;;;19.80;70.20;;;;;;5051963;28;20033;-76
2021/03/31 10:27:48;;;;;;;10.18;4.80;;;20.20;73.00;;;;;;5051299;28;20398;-78
2021/03/31 10:30:34;;;;;;;6.72;2.72;;;20.50;72.60;;;;;;5034114;28;20021;-74
2021/03/31 10:33:02;;;;;;;5.97;2.28;;;20.70;71.70;;;;;;5051944;28;20155;-73
2021/03/31 10:35:56;;;;;;;6.13;3.28;;;21.00;71.60;;;;;;5051830;28;20021;-74
2021/03/31 10:38:40;;;;;;;5.45;2.78;;;21.30;70.60;;;;;;5051933;28;20655;-78
2021/03/31 10:49:17;;;;;;;4.90;2.80;;;21.40;68.30;;;;;;5031504;28;20041;-72
2021/03/31 10:54:14;;;;;;;5.30;2.75;;;21.60;67.50;;;;;;5031639;28;20545;-71
2021/03/31 10:56:50;;;;;;;7.38;3.10;;;21.50;68.20;;;;;;5031787;28;20513;-70
2021/03/31 10:59:16;;;;;;;3.95;2.90;;;21.10;67.60;;;;;;5031502;28;20064;-72
2021/03/31 11:01:42;;;;;;;18.23;3.20;;;21.00;69.10;;;;;;5033030;28;20151;-71
2021/03/31 11:04:08;;;;;;;2.70;2.20;;;21.40;69.90;;;;;;5051281;28;20067;-71
2021/03/31 11:06:34;;;;;;;4.37;3.10;;;21.10;65.50;;;;;;5051346;28;20470;-71
2021/03/31 11:09:00;;;;;;;4.68;2.45;;;20.80;65.10;;;;;;5051489;28;20366;-71
2021/03/31 11:11:26;;;;;;;4.15;2.50;;;20.80;64.70;;;;;;5051795;28;20032;-71
2021/03/31 11:13:52;;;;;;;4.72;2.40;;;20.80;66.60;;;;;;5051817;28;20029;-72
2021/03/31 11:16:19;;;;;;;4.85;2.20;;;21.00;66.40;;;;;;5051309;28;20064;-73
2021/03/31 11:26:49;;;;;;;4.05;2.83;;;21.20;67.90;;;;;;5054995;28;20051;-73
2021/03/31 11:29:15;;;;;;;4.38;2.60;;;20.90;66.30;;;;;;5055491;28;20037;-73
2021/03/31 11:31:41;;;;;;;5.10;2.60;;;20.80;67.30;;;;;;5055985;28;20102;-72
2021/03/31 11:34:07;;;;;;;3.00;2.30;;;20.30;65.70;;;;;;5056010;28;20025;-72
2021/03/31 11:36:34;;;;;;;3.67;2.53;;;20.20;64.70;;;;;;5055762;28;20447;-72
2021/03/31 11:39:01;;;;;;;2.80;2.38;;;20.30;66.10;;;;;;5038133;28;20086;-71
2021/03/31 11:41:27;;;;;;;2.60;2.07;;;20.60;66.40;;;;;;5055669;28;20033;-72
2021/03/31 11:43:54;;;;;;;6.00;2.30;;;20.60;65.70;;;;;;5055474;28;20229;-74
2021/03/31 11:46:20;;;;;;;3.78;2.30;;;20.60;66.60;;;;;;5055330;28;20028;-74
2021/03/31 11:48:46;;;;;;;5.75;2.47;;;20.60;65.10;;;;;;5055896;28;20463;-73
2021/03/31 11:51:12;;;;;;;4.65;2.65;;;20.70;65.40;;;;;;5055578;28;20116;-74
2021/03/31 11:53:38;;;;;;;4.45;2.00;;;20.60;66.70;;;;;;5055632;28;20036;-72
2021/03/31 11:56:05;;;;;;;4.50;2.43;;;20.50;65.00;;;;;;5055333;28;20155;-75
2021/03/31 11:58:30;;;;;;;4.00;2.63;;;20.50;65.40;;;;;;5050802;28;20291;-75
2021/03/31 12:00:58;;;;;;;10.13;2.40;;;20.80;66.00;;;;;;5035294;28;20476;-75
2021/03/31 12:03:24;;;;;;;8.38;2.47;;;21.10;66.60;;;;;;5044453;28;20542;-75
2021/03/31 12:05:50;;;;;;;4.65;2.78;;;20.80;64.70;;;;;;5037340;28;20021;-75
2021/03/31 12:08:17;;;;;;;4.20;2.75;;;20.70;66.30;;;;;;5054658;28;20036;-73
2021/03/31 12:10:43;;;;;;;4.68;2.83;;;21.10;66.20;;;;;;5036751;28;20114;-74
2021/03/31 12:13:09;;;;;;;5.45;2.90;;;21.00;64.90;;;;;;5036493;28;20063;-73
2021/03/31 12:15:35;;;;;;;9.55;3.17;;;20.90;64.40;;;;;;5046496;28;20045;-73
2021/03/31 12:18:01;;;;;;;10.07;3.33;;;20.90;66.30;;;;;;5054634;28;20021;-74
2021/03/31 12:20:27;;;;;;;7.13;2.78;;;21.10;66.00;;;;;;5054761;28;20040;-74
2021/03/31 12:22:53;;;;;;;8.43;3.72;;;21.10;67.90;;;;;;5054607;28;20044;-74
2021/03/31 12:25:21;;;;;;;4.95;3.63;;;21.10;66.00;;;;;;5054358;28;20032;-72
2021/03/31 12:27:49;;;;;;;7.72;2.88;;;20.80;65.60;;;;;;5036577;28;20047;-72
2021/03/31 12:30:15;;;;;;;3.67;2.45;;;20.80;67.80;;;;;;5054610;28;20478;-74
2021/03/31 12:32:41;;;;;;;4.63;2.92;;;20.90;67.30;;;;;;5053887;28;20096;-73
2021/03/31 12:35:08;;;;;;;5.53;2.70;;;21.10;67.80;;;;;;5053928;28;20025;-73
2021/03/31 12:37:35;;;;;;;5.32;2.83;;;20.80;67.20;;;;;;5054304;28;20041;-75
2021/03/31 12:40:02;;;;;;;4.50;2.63;;;20.60;67.20;;;;;;5054610;28;20029;-73
2021/03/31 12:42:28;;;;;;;3.20;2.50;;;20.50;67.10;;;;;;5036459;28;20087;-73
2021/03/31 12:44:54;;;;;;;6.43;3.00;;;20.20;67.80;;;;;;5054009;28;20036;-73
2021/03/31 12:47:21;;;;;;;4.57;2.73;;;20.20;67.80;;;;;;5036669;28;20021;-75
2021/03/31 12:49:49;;;;;;;8.13;3.00;;;20.10;68.10;;;;;;5054619;28;20037;-74
2021/03/31 12:52:16;;;;;;;3.92;2.95;;;20.30;68.30;;;;;;5036500;28;20088;-74
2021/03/31 12:54:52;;;;;;;5.50;3.35;;;20.10;68.00;;;;;;5016314;28;20036;-74
2021/03/31 12:57:18;;;;;;;3.70;2.33;;;20.20;70.30;;;;;;5034373;28;20030;-73
2021/03/31 12:59:44;;;;;;;9.05;2.65;;;20.30;69.40;;;;;;5034498;28;20026;-72
2021/03/31 13:02:10;;;;;;;5.50;3.28;;;20.50;69.10;;;;;;5034435;28;20134;-73
2021/03/31 13:04:36;;;;;;;4.68;2.42;;;20.30;68.60;;;;;;5037212;28;20487;-73
2021/03/31 13:07:04;;;;;;;6.03;2.60;;;20.20;70.10;;;;;;5034406;28;20033;-73
2021/03/31 13:09:30;;;;;;;5.47;2.92;;;20.30;69.80;;;;;;5034322;28;20268;-74
2021/03/31 13:11:57;;;;;;;3.87;2.23;;;20.40;70.50;;;;;;5034273;28;20037;-75
2021/03/31 13:17:14;;;;;;;6.97;2.67;;;20.40;70.90;;;;;;5049181;28;20044;-74
2021/03/31 13:25:34;;;;;;;6.40;2.88;;;20.50;70.60;;;;;;5053840;28;20412;-75
2021/03/31 13:31:24;;;;;;;5.20;2.40;;;20.20;69.80;;;;;;5053903;28;20036;-74
2021/03/31 13:33:41;;;;;;;7.43;2.50;;;20.60;70.80;;;;;;5045537;28;20541;-74
2021/03/31 13:36:20;;;;;;;5.60;3.20;;;20.90;71.80;;;;;;5053350;28;20037;-73
2021/03/31 13:38:55;;;;;;;5.45;2.75;;;21.10;70.70;;;;;;5053376;28;20036;-74
2021/03/31 13:41:21;;;;;;;4.30;2.80;;;20.90;69.40;;;;;;5035847;28;20029;-74
2021/03/31 13:43:47;;;;;;;4.60;2.60;;;20.90;67.90;;;;;;5034904;28;20037;-75
2021/03/31 13:46:14;;;;;;;5.32;2.90;;;20.70;66.20;;;;;;5053010;28;20443;-76
2021/03/31 13:51:11;;;;;;;5.93;2.22;;;20.30;71.30;;;;;;5053527;28;20025;-73
2021/03/31 13:53:38;;;;;;;4.57;2.63;;;20.40;71.10;;;;;;5053529;28;20029;-73
2021/03/31 13:56:10;;;;;;;6.35;2.10;;;20.50;71.10;;;;;;5053672;28;20032;-73
2021/03/31 13:58:36;;;;;;;5.18;3.38;;;20.80;69.60;;;;;;5052756;28;20150;-73
2021/03/31 14:01:02;;;;;;;4.43;1.88;;;21.10;68.50;;;;;;5053285;28;20102;-73
2021/03/31 14:03:28;;;;;;;5.70;2.50;;;21.10;68.90;;;;;;5053125;28;20041;-72
2021/03/31 14:05:54;;;;;;;6.77;2.90;;;21.20;69.60;;;;;;5053145;28;20025;-73
2021/03/31 14:08:19;;;;;;;4.22;2.60;;;21.10;69.00;;;;;;5053069;28;20302;-73
2021/03/31 14:10:45;;;;;;;3.90;2.20;;;21.00;67.20;;;;;;5053277;28;20476;-73
2021/03/31 14:13:11;;;;;;;5.35;2.38;;;20.80;68.90;;;;;;5035048;28;20087;-73
2021/03/31 14:15:37;;;;;;;5.10;2.40;;;21.20;71.00;;;;;;5035073;28;20083;-73
2021/03/31 14:18:05;;;;;;;6.32;2.60;;;20.90;67.90;;;;;;5034824;28;20024;-72
2021/03/31 14:20:31;;;;;;;5.03;2.63;;;20.80;68.00;;;;;;5052775;28;20553;-72
2021/03/31 14:22:57;;;;;;;7.75;3.15;;;20.80;68.50;;;;;;5034915;28;20045;-73
2021/03/31 14:25:24;;;;;;;6.20;2.95;;;20.60;68.00;;;;;;5052827;28;20479;-72
2021/03/31 14:27:50;;;;;;;4.35;2.60;;;20.50;66.70;;;;;;5052561;28;20029;-73
2021/03/31 14:30:19;;;;;;;3.60;2.40;;;20.60;69.10;;;;;;5052794;28;20028;-73
2021/03/31 14:32:45;;;;;;;3.65;2.67;;;20.70;69.70;;;;;;5052630;28;20029;-73